aviador You're here:

ORER Decoded Metar

in
Report Time2018-01-23 05:00:00
UTC Time2018-01-23 05:43:39
Flight Rules mvfr MVFR
Wind030° at 02 kt
W.Decomp.*RWY 36: 1.7 kt HW 1.0 kt RCW
RWY 33: 1.0 kt HW 1.7 kt RCW
W.Rank030° ranks 29
Current wind is below 030° avg. (6.5)
Visibility7000 m
Phenomena:N/A
Clouds:N/A
Expected CloudBase > 2,800 ft AGL from Temp-Dew spread
CeilingNone
Temp06°C
Dew Point-1°C (61% RH)
AAT3.2°C
QNH1016 hPa
Raw Report
ORER 230500Z 03002KT 7000 NSC 06/M01 Q1016 NOSIG=

Extra information for ORER:More info

Social comments